Marchaser — V2OO6 — position and weather

sailwx.info

Track history (hours):
 
Tides and Currents Weather Stations Pressure Air Temp Water Temp Dewpoint Dewpoint Depression Visibility Wind Speed Wind Dir Waves Ship Positions

Marchaser

Last reported at 2014-Jul-19 06:33 UTC. Time now 2014-Jul-23 09:51 UTC.
Position N 25°34' W 080°02'.

Length 134 m; draft 7 m.

Type: Cargo ship. MMSI: 304617000.

Date/timePositionNaut miles runAvg speedWind from/ knotsBaromVisibWave heightAir tempDewpointWater temp
2014-Jul-19 06:33N 25°34' W 080°02'1312.8
2014-Jul-19 05:34N 25°46' W 080°05'5 4.0
2014-Jul-19 04:26N 25°46' W 080°10'0 0.0
2014-Jul-19 03:29N 25°46' W 080°10'0 0.0
2014-Jul-19 02:29N 25°46' W 080°10'0 0.0
2014-Jul-19 01:29N 25°46' W 080°10'0 0.0
2014-Jul-19 00:32N 25°46' W 080°10'0 0.0
2014-Jul-18 23:32N 25°46' W 080°10'0 0.0
2014-Jul-18 22:32N 25°46' W 080°10'0 0.0
2014-Jul-18 21:32N 25°46' W 080°10'0 0.0
2014-Jul-18 20:32N 25°46' W 080°10'0 0.0
2014-Jul-18 19:32N 25°46' W 080°10'0 0.0
2014-Jul-18 18:32N 25°46' W 080°10'0 0.0
2014-Jul-18 17:23N 25°46' W 080°10'0 0.0
2014-Jul-18 16:26N 25°46' W 080°10'0 0.0
2014-Jul-18 15:26N 25°46' W 080°10'0 0.0
2014-Jul-18 14:26N 25°46' W 080°10'0 0.0
2014-Jul-18 13:29N 25°46' W 080°10'0 0.0
2014-Jul-18 12:29N 25°46' W 080°10'0 0.0
2014-Jul-18 11:29N 25°46' W 080°10'3 3.0
2014-Jul-18 10:33N 25°46' W 080°07'  
2014-Jul-12 23:15N 25°31' W 080°02'913.3
2014-Jul-12 22:33N 25°40' W 080°02'8 8.4
2014-Jul-12 21:33N 25°46' W 080°09'2 1.6
2014-Jul-12 20:33N 25°46' W 080°10'0 0.0
2014-Jul-12 19:30N 25°46' W 080°10'0 0.0
2014-Jul-12 18:30N 25°46' W 080°10'0 0.0
2014-Jul-12 17:33N 25°46' W 080°10'0 0.0
2014-Jul-12 16:33N 25°46' W 080°10'0 0.0
2014-Jul-12 15:33N 25°46' W 080°10'0 0.0
2014-Jul-12 14:32N 25°46' W 080°10'0 0.0
2014-Jul-12 13:33N 25°46' W 080°10'0 0.0
2014-Jul-12 12:33N 25°46' W 080°10'0 0.0
2014-Jul-12 11:33N 25°46' W 080°10'3 2.9
2014-Jul-12 10:33N 25°46' W 080°07'8 7.5
2014-Jul-12 09:33N 25°40' W 080°02'  
Track history (hours):
 
Tides and Currents Weather Stations Pressure Air Temp Water Temp Dewpoint Dewpoint Depression Visibility Wind Speed Wind Dir Waves Ship Positions

Marchaser

Last reported at 2014-Jul-19 06:33 UTC. Time now 2014-Jul-23 09:51 UTC.
Position N 25°34' W 080°02'.

Length 134 m; draft 7 m.

Type: Cargo ship. MMSI: 304617000.

Date/timePositionNaut miles runAvg speedWind from/ knotsBaromVisibWave heightAir tempDewpointWater temp
2014-Jul-19 06:33N 25°34' W 080°02'1312.8
2014-Jul-19 05:34N 25°46' W 080°05'5 4.0
2014-Jul-19 04:26N 25°46' W 080°10'0 0.0
2014-Jul-19 03:29N 25°46' W 080°10'0 0.0
2014-Jul-19 02:29N 25°46' W 080°10'0 0.0
2014-Jul-19 01:29N 25°46' W 080°10'0 0.0
2014-Jul-19 00:32N 25°46' W 080°10'0 0.0
2014-Jul-18 23:32N 25°46' W 080°10'0 0.0
2014-Jul-18 22:32N 25°46' W 080°10'0 0.0
2014-Jul-18 21:32N 25°46' W 080°10'0 0.0
2014-Jul-18 20:32N 25°46' W 080°10'0 0.0
2014-Jul-18 19:32N 25°46' W 080°10'0 0.0
2014-Jul-18 18:32N 25°46' W 080°10'0 0.0
2014-Jul-18 17:23N 25°46' W 080°10'0 0.0
2014-Jul-18 16:26N 25°46' W 080°10'0 0.0
2014-Jul-18 15:26N 25°46' W 080°10'0 0.0
2014-Jul-18 14:26N 25°46' W 080°10'0 0.0
2014-Jul-18 13:29N 25°46' W 080°10'0 0.0
2014-Jul-18 12:29N 25°46' W 080°10'0 0.0
2014-Jul-18 11:29N 25°46' W 080°10'3 3.0
2014-Jul-18 10:33N 25°46' W 080°07'  
2014-Jul-12 23:15N 25°31' W 080°02'913.3
2014-Jul-12 22:33N 25°40' W 080°02'8 8.4
2014-Jul-12 21:33N 25°46' W 080°09'2 1.6
2014-Jul-12 20:33N 25°46' W 080°10'0 0.0
2014-Jul-12 19:30N 25°46' W 080°10'0 0.0
2014-Jul-12 18:30N 25°46' W 080°10'0 0.0
2014-Jul-12 17:33N 25°46' W 080°10'0 0.0
2014-Jul-12 16:33N 25°46' W 080°10'0 0.0
2014-Jul-12 15:33N 25°46' W 080°10'0 0.0
2014-Jul-12 14:32N 25°46' W 080°10'0 0.0
2014-Jul-12 13:33N 25°46' W 080°10'0 0.0
2014-Jul-12 12:33N 25°46' W 080°10'0 0.0
2014-Jul-12 11:33N 25°46' W 080°10'3 2.9
2014-Jul-12 10:33N 25°46' W 080°07'8 7.5
2014-Jul-12 09:33N 25°40' W 080°02'  

Dump ship's entire track history